createdAt,value
2022-12-12T00:01:18.832Z,100541.88
2022-12-12T00:03:45.749Z,100543.56
2022-12-12T00:06:12.654Z,100540.16
2022-12-12T00:08:39.408Z,100549.03
2022-12-12T00:11:06.623Z,100546.13
2022-12-12T00:13:34.332Z,100543.63
2022-12-12T00:16:01.251Z,100531.31
2022-12-12T00:18:27.996Z,100530.28
2022-12-12T00:20:56.253Z,100537.44
2022-12-12T00:23:26.701Z,100544.41
2022-12-12T00:25:58.526Z,100541.88
2022-12-12T00:28:25.346Z,100546.53
2022-12-12T00:30:52.225Z,100543.25
2022-12-12T00:33:19.193Z,100543.75
2022-12-12T00:35:49.135Z,100549.84
2022-12-12T00:38:17.345Z,100557.34
2022-12-12T00:40:43.960Z,100560.81
2022-12-12T00:43:11.071Z,100561.66
2022-12-12T00:45:38.272Z,100566.28
2022-12-12T00:48:05.773Z,100570.75
2022-12-12T00:50:33.628Z,100575.75
2022-12-12T00:53:00.440Z,100577.78
2022-12-12T00:55:27.662Z,100576.47
2022-12-12T00:57:54.395Z,100567.72
2022-12-12T01:00:22.557Z,100564.72
2022-12-12T01:02:49.400Z,100567.84
2022-12-12T01:05:17.008Z,100565.34
2022-12-12T01:07:43.944Z,100562.53
2022-12-12T01:10:10.926Z,100550.66
2022-12-12T01:12:37.612Z,100557.25
2022-12-12T01:15:07.203Z,100552.59
2022-12-12T01:17:37.852Z,100554.28
2022-12-12T01:20:16.207Z,100549.63
2022-12-12T01:22:42.934Z,100546.03
2022-12-12T01:25:12.229Z,100542.88
2022-12-12T01:27:39.196Z,100542.53
2022-12-12T01:30:07.561Z,100548.81
2022-12-12T01:32:34.283Z,100559.91
2022-12-12T01:35:00.903Z,100568.72
2022-12-12T01:37:27.608Z,100583.75
2022-12-12T01:39:54.319Z,100579.97
2022-12-12T01:42:21.096Z,100573.66
2022-12-12T01:44:53.143Z,100582.63
2022-12-12T01:47:21.275Z,100587.28
2022-12-12T01:49:58.306Z,100571.56
2022-12-12T01:52:44.151Z,100568.41
2022-12-12T01:55:17.367Z,100555.28
2022-12-12T01:57:48.142Z,100569.03
2022-12-12T02:00:15.896Z,100577.31
2022-12-12T02:02:46.337Z,100578.31
2022-12-12T02:05:25.755Z,100578.81
2022-12-12T02:07:53.178Z,100574.72
2022-12-12T02:10:20.557Z,100574.19
2022-12-12T02:12:47.476Z,100584.63
2022-12-12T02:15:14.556Z,100584.94
2022-12-12T02:18:03.813Z,100595.72
2022-12-12T02:20:59.051Z,100595.41
2022-12-12T02:24:02.835Z,100601.22
2022-12-12T02:26:52.268Z,100589.09
2022-12-12T02:29:40.003Z,100592.25
2022-12-12T02:32:21.552Z,100603.34
2022-12-12T02:35:12.035Z,100604.69
2022-12-12T02:37:53.604Z,100610.50
2022-12-12T02:40:40.896Z,100604.25
2022-12-12T02:43:30.628Z,100608.84
2022-12-12T02:46:07.326Z,100613.00
2022-12-12T02:48:39.398Z,100606.56
2022-12-12T02:51:08.130Z,100612.34
2022-12-12T02:53:34.853Z,100622.28
2022-12-12T02:56:07.149Z,100637.84
2022-12-12T02:58:40.940Z,100640.38
2022-12-12T03:01:36.847Z,100648.63
2022-12-12T03:04:32.629Z,100649.78
2022-12-12T03:07:28.915Z,100636.06
2022-12-12T03:10:15.380Z,100628.91
2022-12-12T03:13:03.656Z,100625.63
2022-12-12T03:16:04.270Z,100620.97
2022-12-12T03:18:42.103Z,100618.66
2022-12-12T03:21:24.295Z,100635.03
2022-12-12T03:23:53.566Z,100634.69
2022-12-12T03:26:27.549Z,100632.31
2022-12-12T03:29:11.370Z,100634.97
2022-12-12T03:31:43.201Z,100639.25
2022-12-12T03:34:19.967Z,100646.19
2022-12-12T03:36:55.864Z,100659.88
2022-12-12T03:39:32.270Z,100651.25
2022-12-12T03:42:08.722Z,100644.09
2022-12-12T03:44:44.984Z,100642.47
2022-12-12T03:47:16.440Z,100647.31
2022-12-12T03:49:59.045Z,100643.56
2022-12-12T03:52:36.011Z,100631.81
2022-12-12T03:55:42.103Z,100616.72
2022-12-12T03:58:16.810Z,100632.94
2022-12-12T04:00:48.064Z,100631.50
2022-12-12T04:03:37.560Z,100628.31
2022-12-12T04:06:27.048Z,100633.22
2022-12-12T04:09:24.840Z,100644.59
2022-12-12T04:12:44.244Z,100656.22
2022-12-12T04:15:17.760Z,100667.19
2022-12-12T04:17:56.521Z,100675.00
2022-12-12T04:20:51.960Z,100673.34
2022-12-12T04:23:39.948Z,100668.25
2022-12-12T04:26:34.623Z,100681.06
2022-12-12T04:29:10.522Z,100672.00
2022-12-12T04:31:45.530Z,100675.91
2022-12-12T04:34:30.658Z,100670.28
2022-12-12T04:36:57.671Z,100668.66
2022-12-12T04:39:25.439Z,100667.59
2022-12-12T04:41:54.965Z,100679.31
2022-12-12T04:44:23.787Z,100690.72
2022-12-12T04:46:54.769Z,100696.41
2022-12-12T04:49:27.288Z,100696.50
2022-12-12T04:51:59.971Z,100690.03
2022-12-12T04:54:26.601Z,100672.03
2022-12-12T04:56:58.984Z,100683.25
2022-12-12T04:59:26.286Z,100675.59
2022-12-12T05:02:00.423Z,100680.91
2022-12-12T05:04:38.854Z,100688.16
2022-12-12T05:07:15.405Z,100700.97
2022-12-12T05:09:43.134Z,100726.47
2022-12-12T05:12:10.051Z,100720.50
2022-12-12T05:14:36.773Z,100716.50
2022-12-12T05:17:09.429Z,100712.38
2022-12-12T05:19:36.217Z,100699.72
2022-12-12T05:22:03.162Z,100712.34
2022-12-12T05:24:31.356Z,100704.41
2022-12-12T05:27:00.043Z,100710.97
2022-12-12T05:29:26.814Z,100719.94
2022-12-12T05:31:53.493Z,100723.41
2022-12-12T05:34:20.211Z,100714.28
2022-12-12T05:36:47.882Z,100716.13
2022-12-12T05:39:14.692Z,100721.75
2022-12-12T05:41:41.444Z,100728.19
2022-12-12T05:44:08.175Z,100714.91
2022-12-12T05:46:34.951Z,100721.72
2022-12-12T05:49:01.651Z,100722.69
2022-12-12T05:51:28.362Z,100721.88
2022-12-12T05:53:55.116Z,100720.03
2022-12-12T05:56:21.803Z,100706.16
2022-12-12T05:58:48.495Z,100712.22
2022-12-12T06:01:15.175Z,100713.44
2022-12-12T06:03:42.219Z,100714.72
2022-12-12T06:06:08.913Z,100723.72
2022-12-12T06:08:35.687Z,100722.81
2022-12-12T06:11:05.561Z,100733.81
2022-12-12T06:13:32.486Z,100742.38
2022-12-12T06:15:59.205Z,100733.38
2022-12-12T06:18:25.964Z,100734.91
2022-12-12T06:21:02.057Z,100734.94
2022-12-12T06:23:29.159Z,100753.00
2022-12-12T06:25:55.813Z,100742.88
2022-12-12T06:28:22.498Z,100722.34
2022-12-12T06:30:49.200Z,100733.16
2022-12-12T06:33:16.182Z,100746.94
2022-12-12T06:35:42.960Z,100749.88
2022-12-12T06:38:09.817Z,100753.88
2022-12-12T06:40:40.008Z,100761.00
2022-12-12T06:43:06.832Z,100759.19
2022-12-12T06:45:33.641Z,100753.88
2022-12-12T06:48:00.419Z,100745.88
2022-12-12T06:50:27.088Z,100745.72
2022-12-12T06:52:54.307Z,100752.22
2022-12-12T06:55:20.987Z,100735.00
2022-12-12T06:57:47.702Z,100740.91
2022-12-12T07:00:15.008Z,100732.59
2022-12-12T07:02:41.745Z,100731.94
2022-12-12T07:05:08.704Z,100719.84
2022-12-12T07:07:35.641Z,100715.78
2022-12-12T07:10:02.376Z,100710.56
2022-12-12T07:12:29.056Z,100712.00
2022-12-12T07:14:55.945Z,100716.69
2022-12-12T07:17:22.771Z,100734.28
2022-12-12T07:19:49.465Z,100726.09
2022-12-12T07:22:16.231Z,100730.56
2022-12-12T07:24:42.910Z,100740.66
2022-12-12T07:27:09.654Z,100750.66
2022-12-12T07:29:36.334Z,100752.75
2022-12-12T07:32:03.125Z,100749.19
2022-12-12T07:34:30.320Z,100771.38
2022-12-12T07:37:02.582Z,100781.75
2022-12-12T07:39:31.323Z,100796.69
2022-12-12T07:41:57.962Z,100798.72
2022-12-12T07:44:25.685Z,100795.41
2022-12-12T07:46:52.492Z,100793.25
2022-12-12T07:49:19.583Z,100780.13
2022-12-12T07:51:49.120Z,100785.19
2022-12-12T07:54:16.509Z,100777.63
2022-12-12T07:56:43.177Z,100777.63
2022-12-12T07:59:09.899Z,100788.56
2022-12-12T08:01:36.753Z,100786.44
2022-12-12T08:04:03.642Z,100795.63
2022-12-12T08:06:30.381Z,100800.09
2022-12-12T08:08:57.192Z,100808.06
2022-12-12T08:11:25.412Z,100816.84
2022-12-12T08:13:52.922Z,100816.19
2022-12-12T08:16:23.564Z,100816.19
2022-12-12T08:18:52.871Z,100806.81
2022-12-12T08:21:25.082Z,100811.78
2022-12-12T08:23:56.666Z,100819.13
2022-12-12T08:26:23.575Z,100794.59
2022-12-12T08:28:50.207Z,100784.91
2022-12-12T08:31:18.140Z,100788.09
2022-12-12T08:33:45.591Z,100785.06
2022-12-12T08:36:18.204Z,100791.75
2022-12-12T08:38:45.310Z,100791.94
2022-12-12T08:41:12.821Z,100772.59
2022-12-12T08:43:41.464Z,100772.41
2022-12-12T08:46:15.346Z,100759.00
2022-12-12T08:48:44.057Z,100781.84
2022-12-12T08:51:12.491Z,100785.50
2022-12-12T08:53:39.230Z,100785.16
2022-12-12T08:56:06.370Z,100777.50
2022-12-12T08:58:33.167Z,100773.34
2022-12-12T09:00:59.857Z,100772.53
2022-12-12T09:03:29.376Z,100767.09
2022-12-12T09:05:56.564Z,100758.31
2022-12-12T09:08:23.344Z,100746.53
2022-12-12T09:10:51.149Z,100749.03
2022-12-12T09:13:18.553Z,100754.50
2022-12-12T09:15:45.499Z,100770.56
2022-12-12T09:18:12.431Z,100770.59
2022-12-12T09:20:39.271Z,100775.41
2022-12-12T09:23:05.913Z,100784.53
2022-12-12T09:25:32.643Z,100795.47
2022-12-12T09:27:59.363Z,100800.44
2022-12-12T09:30:26.114Z,100827.81
2022-12-12T09:32:55.155Z,100826.31
2022-12-12T09:35:21.832Z,100828.59
2022-12-12T09:37:48.462Z,100846.84
2022-12-12T09:40:21.151Z,100844.72
2022-12-12T09:42:51.859Z,100852.66
2022-12-12T09:45:19.663Z,100867.09
2022-12-12T09:47:53.213Z,100874.88
2022-12-12T09:50:36.980Z,100889.00
2022-12-12T09:53:10.093Z,100904.41
2022-12-12T09:55:51.811Z,100920.03
2022-12-12T09:58:44.998Z,100917.88
2022-12-12T10:01:36.746Z,100913.84
2022-12-12T10:04:33.936Z,100902.59
2022-12-12T10:07:33.001Z,100908.88
2022-12-12T10:10:23.259Z,100873.03
2022-12-12T10:12:51.131Z,100865.41
2022-12-12T10:15:42.092Z,100846.06
2022-12-12T10:18:16.439Z,100840.78
2022-12-12T10:20:55.975Z,100831.59
2022-12-12T10:23:44.369Z,100825.44
2022-12-12T10:26:31.556Z,100824.53
2022-12-12T10:29:11.624Z,100840.00
2022-12-12T10:31:44.420Z,100820.66
2022-12-12T10:34:48.546Z,100819.50
2022-12-12T10:37:21.100Z,100824.13
2022-12-12T10:39:58.608Z,100827.25
2022-12-12T10:42:32.089Z,100831.56
2022-12-12T10:45:01.792Z,100814.13
2022-12-12T10:47:28.647Z,100816.47
2022-12-12T10:50:14.008Z,100808.09
2022-12-12T10:52:40.750Z,100806.25
2022-12-12T10:55:45.981Z,100798.19
2022-12-12T10:58:13.481Z,100801.38
2022-12-12T11:00:42.517Z,100807.69
2022-12-12T11:03:45.194Z,100789.66
2022-12-12T11:06:18.081Z,100789.38
2022-12-12T11:09:23.227Z,100786.94
2022-12-12T11:12:03.909Z,100784.88
2022-12-12T11:14:39.030Z,100786.50
2022-12-12T11:17:39.319Z,100771.00
2022-12-12T11:20:16.593Z,100770.97
2022-12-12T11:23:22.341Z,100757.31
2022-12-12T11:27:25.924Z,100745.59
2022-12-12T11:30:09.100Z,100718.84
2022-12-12T11:32:44.063Z,100717.13
2022-12-12T11:35:30.984Z,100704.59
2022-12-12T11:38:01.574Z,100692.41
2022-12-12T11:40:31.147Z,100684.88
2022-12-12T11:43:37.230Z,100683.03
2022-12-12T11:46:16.280Z,100668.28
2022-12-12T11:48:51.939Z,100647.38
2022-12-12T11:51:35.891Z,100645.97
2022-12-12T11:54:05.892Z,100638.97
2022-12-12T11:56:41.443Z,100635.28
2022-12-12T11:59:22.749Z,100634.72
2022-12-12T12:02:18.599Z,100631.00
2022-12-12T12:04:53.230Z,100628.78
2022-12-12T12:07:42.267Z,100621.69
2022-12-12T12:10:24.072Z,100583.41
2022-12-12T12:12:51.166Z,100560.69
2022-12-12T12:15:35.964Z,100562.09
2022-12-12T12:18:35.243Z,100541.78
2022-12-12T12:21:29.801Z,100530.00
2022-12-12T12:24:02.837Z,100534.78
2022-12-12T12:26:51.131Z,100542.63
2022-12-12T12:29:39.776Z,100523.41
2022-12-12T12:32:12.706Z,100537.91
2022-12-12T12:34:44.644Z,100527.91
2022-12-12T12:37:34.091Z,100499.97
2022-12-12T12:40:06.623Z,100497.84
2022-12-12T12:42:50.044Z,100497.03
2022-12-12T12:45:28.104Z,100474.66
2022-12-12T12:48:05.772Z,100471.25
2022-12-12T12:50:44.171Z,100477.94
2022-12-12T12:53:16.787Z,100446.31
2022-12-12T12:55:50.968Z,100427.25
2022-12-12T12:58:24.505Z,100428.38
2022-12-12T13:01:00.873Z,100416.97
2022-12-12T13:03:35.536Z,100404.28
2022-12-12T13:06:08.883Z,100404.31
2022-12-12T13:08:52.387Z,100387.75
2022-12-12T13:11:26.997Z,100391.53
2022-12-12T13:13:57.975Z,100390.06
2022-12-12T13:16:28.459Z,100389.81
2022-12-12T13:19:06.715Z,100391.31
2022-12-12T13:21:59.706Z,100394.28
2022-12-12T13:24:33.183Z,100390.06
2022-12-12T13:27:24.420Z,100382.28
2022-12-12T13:29:59.831Z,100370.34
2022-12-12T13:32:38.785Z,100358.84
2022-12-12T13:35:30.421Z,100349.72
2022-12-12T13:37:57.647Z,100342.13
2022-12-12T13:40:29.499Z,100330.78
2022-12-12T13:43:09.484Z,100322.16
2022-12-12T13:45:45.482Z,100324.50
2022-12-12T13:48:27.538Z,100335.34
2022-12-12T13:51:28.351Z,100337.50
2022-12-12T13:54:12.554Z,100336.25
2022-12-12T13:56:47.790Z,100343.38
2022-12-12T13:59:23.734Z,100330.94
2022-12-12T14:02:15.296Z,100312.03
2022-12-12T14:04:44.525Z,100305.72
2022-12-12T14:07:19.384Z,100287.69
2022-12-12T14:09:53.688Z,100272.81
2022-12-12T14:12:30.720Z,100271.78
2022-12-12T14:15:06.285Z,100285.97
2022-12-12T14:17:42.178Z,100272.31
2022-12-12T14:20:27.007Z,100263.31
2022-12-12T14:22:59.498Z,100260.81
2022-12-12T14:25:33.696Z,100256.09
2022-12-12T14:28:04.121Z,100249.31
2022-12-12T14:30:57.016Z,100251.41
2022-12-12T14:33:52.683Z,100236.91
2022-12-12T14:36:38.154Z,100218.06
2022-12-12T14:39:28.796Z,100222.19
2022-12-12T14:41:56.921Z,100229.16
2022-12-12T14:44:37.981Z,100220.56
2022-12-12T14:47:09.413Z,100232.22
2022-12-12T14:49:36.334Z,100219.31
2022-12-12T14:52:03.800Z,100222.78
2022-12-12T14:54:31.348Z,100229.09
2022-12-12T14:56:59.257Z,100234.47
2022-12-12T14:59:30.888Z,100242.50
2022-12-12T15:02:22.566Z,100221.75
2022-12-12T15:04:58.032Z,100223.72
2022-12-12T15:07:29.129Z,100215.72
2022-12-12T15:09:56.071Z,100221.13
2022-12-12T15:12:32.754Z,100212.28
2022-12-12T15:14:59.641Z,100201.19
2022-12-12T15:17:34.484Z,100201.84
2022-12-12T15:20:01.129Z,100204.09
2022-12-12T15:22:31.555Z,100199.81
2022-12-12T15:25:01.496Z,100194.25
2022-12-12T15:27:40.198Z,100181.59
2022-12-12T15:30:33.930Z,100193.44
2022-12-12T15:33:02.556Z,100199.44
2022-12-12T15:35:29.447Z,100186.75
2022-12-12T15:37:58.219Z,100171.41
2022-12-12T15:40:31.104Z,100163.25
2022-12-12T15:43:00.346Z,100161.44
2022-12-12T15:45:29.606Z,100155.09
2022-12-12T15:47:56.695Z,100156.63
2022-12-12T15:50:37.667Z,100158.53
2022-12-12T15:53:26.674Z,100147.09
2022-12-12T15:56:13.763Z,100159.00
2022-12-12T15:58:46.901Z,100173.19
2022-12-12T16:01:20.865Z,100173.59
2022-12-12T16:04:21.920Z,100148.00
2022-12-12T16:06:49.239Z,100161.97
2022-12-12T16:09:26.633Z,100165.63
2022-12-12T16:11:57.645Z,100149.66
2022-12-12T16:14:40.117Z,100142.59
2022-12-12T16:17:14.278Z,100160.47
2022-12-12T16:20:02.266Z,100139.13
2022-12-12T16:22:45.616Z,100113.84
2022-12-12T16:25:26.271Z,100120.19
2022-12-12T16:28:23.196Z,100126.16
2022-12-12T16:30:59.414Z,100125.13
2022-12-12T16:33:35.186Z,100100.69
2022-12-12T16:36:07.779Z,100092.00
2022-12-12T16:38:35.192Z,100100.41
2022-12-12T16:41:05.411Z,100090.72
2022-12-12T16:43:32.253Z,100080.91
2022-12-12T16:45:59.316Z,100082.84
2022-12-12T16:48:37.749Z,100089.34
2022-12-12T16:51:06.876Z,100107.53
2022-12-12T16:53:35.059Z,100088.78
2022-12-12T16:56:02.517Z,100081.38
2022-12-12T16:58:33.618Z,100103.50
2022-12-12T17:01:01.765Z,100104.94
2022-12-12T17:03:29.952Z,100089.47
2022-12-12T17:05:56.657Z,100088.81
2022-12-12T17:08:23.439Z,100082.09
2022-12-12T17:11:09.439Z,100084.31
2022-12-12T17:13:37.621Z,100080.56
2022-12-12T17:16:04.465Z,100058.38
2022-12-12T17:18:31.364Z,100055.19
2022-12-12T17:20:58.078Z,100055.38
2022-12-12T17:23:27.573Z,100054.19
2022-12-12T17:26:00.690Z,100068.97
2022-12-12T17:28:29.564Z,100059.19
2022-12-12T17:30:56.193Z,100046.13
2022-12-12T17:33:22.889Z,100062.69
2022-12-12T17:36:04.689Z,100054.00
2022-12-12T17:38:32.091Z,100062.31
2022-12-12T17:41:03.356Z,100072.91
2022-12-12T17:43:30.147Z,100063.13
2022-12-12T17:46:02.360Z,100048.25
2022-12-12T17:48:31.301Z,100049.19
2022-12-12T17:51:00.911Z,100049.50
2022-12-12T17:53:32.322Z,100013.28
2022-12-12T17:56:01.849Z,99990.22
2022-12-12T17:58:40.304Z,99997.91
2022-12-12T18:01:23.963Z,100005.28
2022-12-12T18:03:51.590Z,100003.50
2022-12-12T18:06:20.059Z,99997.56
2022-12-12T18:08:47.991Z,100024.78
2022-12-12T18:11:18.010Z,100003.31
2022-12-12T18:13:48.577Z,100003.84
2022-12-12T18:16:15.696Z,100010.72
2022-12-12T18:18:42.930Z,100010.53
2022-12-12T18:21:23.502Z,100023.03
2022-12-12T18:24:00.077Z,100024.06
2022-12-12T18:26:26.749Z,100032.22
2022-12-12T18:28:59.468Z,100047.94
2022-12-12T18:31:26.433Z,100029.09
2022-12-12T18:33:53.295Z,100044.63
2022-12-12T18:36:23.374Z,100029.88
2022-12-12T18:38:50.475Z,100001.00
2022-12-12T18:41:17.649Z,100027.91
2022-12-12T18:43:44.440Z,100008.25
2022-12-12T18:46:13.501Z,100000.13
2022-12-12T18:48:42.541Z,100013.84
2022-12-12T18:51:20.818Z,100002.22
2022-12-12T18:53:48.826Z,100006.34
2022-12-12T18:56:18.086Z,100006.25
2022-12-12T18:58:45.155Z,100017.56
2022-12-12T19:01:15.206Z,99999.88
2022-12-12T19:03:44.046Z,100015.47
2022-12-12T19:06:13.931Z,100008.16
2022-12-12T19:08:41.023Z,100021.88
2022-12-12T19:11:08.910Z,100012.38
2022-12-12T19:13:35.749Z,100010.66
2022-12-12T19:16:07.985Z,99999.41
2022-12-12T19:18:35.537Z,99999.84
2022-12-12T19:21:28.489Z,99979.16
2022-12-12T19:23:55.599Z,99935.47
2022-12-12T19:26:27.852Z,99940.22
2022-12-12T19:28:59.521Z,99943.50
2022-12-12T19:31:26.884Z,99952.66
2022-12-12T19:33:54.037Z,99948.63
2022-12-12T19:36:23.615Z,99936.63
2022-12-12T19:38:51.365Z,99943.50
2022-12-12T19:41:20.971Z,99949.34
2022-12-12T19:43:49.564Z,99937.66
2022-12-12T19:46:25.306Z,99951.47
2022-12-12T19:48:57.771Z,99949.31
2022-12-12T19:51:25.737Z,99936.34
2022-12-12T19:53:54.636Z,99934.31
2022-12-12T19:56:24.298Z,99928.72
2022-12-12T19:58:51.024Z,99915.84
2022-12-12T20:01:21.632Z,99925.59
2022-12-12T20:03:50.491Z,99923.31
2022-12-12T20:06:17.381Z,99921.88
2022-12-12T20:08:44.690Z,99918.78
2022-12-12T20:11:14.602Z,99912.75
2022-12-12T20:13:41.666Z,99919.69
2022-12-12T20:16:15.121Z,99919.78
2022-12-12T20:18:42.256Z,99924.16
2022-12-12T20:21:10.149Z,99924.50
2022-12-12T20:23:43.822Z,99923.69
2022-12-12T20:26:17.041Z,99912.72
2022-12-12T20:28:43.889Z,99909.16
2022-12-12T20:31:17.587Z,99896.69
2022-12-12T20:33:44.661Z,99895.13
2022-12-12T20:36:17.015Z,99886.88
2022-12-12T20:38:44.175Z,99884.81
2022-12-12T20:41:17.207Z,99884.41
2022-12-12T20:43:44.876Z,99900.94
2022-12-12T20:46:17.719Z,99892.47
2022-12-12T20:48:45.588Z,99891.50
2022-12-12T20:51:45.519Z,99893.63
2022-12-12T20:54:04.222Z,99903.38
2022-12-12T20:56:31.382Z,99899.34
2022-12-12T20:59:00.265Z,99892.28
2022-12-12T21:01:35.887Z,99890.91
2022-12-12T21:04:05.047Z,99896.78
2022-12-12T21:06:35.467Z,99889.75
2022-12-12T21:09:05.949Z,99876.34
2022-12-12T21:11:32.866Z,99873.84
2022-12-12T21:13:59.557Z,99873.41
2022-12-12T21:16:32.227Z,99875.63
2022-12-12T21:19:01.653Z,99874.88
2022-12-12T21:21:29.546Z,99871.16
2022-12-12T21:23:56.743Z,99876.19
2022-12-12T21:26:28.918Z,99877.00
2022-12-12T21:28:57.901Z,99865.22
2022-12-12T21:31:27.376Z,99869.53
2022-12-12T21:33:54.610Z,99882.66
2022-12-12T21:36:23.678Z,99881.59
2022-12-12T21:38:51.579Z,99878.63
2022-12-12T21:41:20.243Z,99867.56
2022-12-12T21:43:47.185Z,99882.28
2022-12-12T21:46:20.596Z,99894.28
2022-12-12T21:49:07.771Z,99873.72
2022-12-12T21:51:35.453Z,99868.94
2022-12-12T21:54:03.928Z,99871.03
2022-12-12T21:56:31.175Z,99876.66
2022-12-12T21:58:58.272Z,99871.53
2022-12-12T22:01:25.076Z,99871.16
2022-12-12T22:03:51.799Z,99857.88
2022-12-12T22:06:24.370Z,99851.69
2022-12-12T22:08:51.682Z,99855.72
2022-12-12T22:11:33.861Z,99863.69
2022-12-12T22:14:07.666Z,99852.31
2022-12-12T22:16:34.764Z,99846.63
2022-12-12T22:19:05.998Z,99860.72
2022-12-12T22:21:56.106Z,99870.13
2022-12-12T22:24:23.316Z,99861.59
2022-12-12T22:26:50.311Z,99855.69
2022-12-12T22:29:19.679Z,99846.66
2022-12-12T22:31:47.595Z,99868.34
2022-12-12T22:34:19.685Z,99901.50
2022-12-12T22:36:46.791Z,99905.00
2022-12-12T22:39:16.811Z,99911.31
2022-12-12T22:41:44.251Z,99915.63
2022-12-12T22:44:14.893Z,99910.09
2022-12-12T22:46:44.270Z,99916.53
2022-12-12T22:49:14.187Z,99918.13
2022-12-12T22:51:41.697Z,99919.69
2022-12-12T22:54:08.508Z,99903.09
2022-12-12T22:56:36.864Z,99899.47
2022-12-12T22:59:04.908Z,99913.00
2022-12-12T23:01:32.225Z,99910.81
2022-12-12T23:03:59.315Z,99894.56
2022-12-12T23:06:30.050Z,99883.41
2022-12-12T23:08:59.605Z,99897.72
2022-12-12T23:11:28.624Z,99898.53
2022-12-12T23:14:07.157Z,99889.00
2022-12-12T23:16:35.551Z,99895.56
2022-12-12T23:19:04.738Z,99889.44
2022-12-12T23:21:36.232Z,99889.28
2022-12-12T23:24:04.533Z,99890.53
2022-12-12T23:26:33.449Z,99893.63
2022-12-12T23:29:00.456Z,99897.53
2022-12-12T23:31:33.256Z,99896.31
2022-12-12T23:34:03.983Z,99888.59
2022-12-12T23:36:31.269Z,99888.34
2022-12-12T23:39:01.055Z,99898.59
2022-12-12T23:41:28.645Z,99902.13
2022-12-12T23:43:56.164Z,99910.50
2022-12-12T23:46:29.458Z,99914.66
2022-12-12T23:49:02.299Z,99900.75
2022-12-12T23:51:31.668Z,99891.16
2022-12-12T23:53:59.552Z,99894.44
2022-12-12T23:56:26.787Z,99894.88
2022-12-12T23:58:55.065Z,99902.81
